sensor_id;sensor_type;location;lat;lon;timestamp;P1;durP1;ratioP1;P2;durP2;ratioP2
757;SDS011;363;48.764;9.172;2022-11-15T00:00:07;6.13;;;4.70;;
757;SDS011;363;48.764;9.172;2022-11-15T00:02:34;5.97;;;4.93;;
757;SDS011;363;48.764;9.172;2022-11-15T00:05:00;5.33;;;4.83;;
757;SDS011;363;48.764;9.172;2022-11-15T00:07:26;4.87;;;4.37;;
757;SDS011;363;48.764;9.172;2022-11-15T00:09:51;7.30;;;4.50;;
757;SDS011;363;48.764;9.172;2022-11-15T00:12:17;4.57;;;3.73;;
757;SDS011;363;48.764;9.172;2022-11-15T00:14:42;4.23;;;3.83;;
757;SDS011;363;48.764;9.172;2022-11-15T00:17:08;7.07;;;4.70;;
757;SDS011;363;48.764;9.172;2022-11-15T00:19:34;4.70;;;4.23;;
757;SDS011;363;48.764;9.172;2022-11-15T00:21:59;5.37;;;4.87;;
757;SDS011;363;48.764;9.172;2022-11-15T00:24:25;5.70;;;4.53;;
757;SDS011;363;48.764;9.172;2022-11-15T00:26:51;4.73;;;4.23;;
757;SDS011;363;48.764;9.172;2022-11-15T00:29:17;5.50;;;4.77;;
757;SDS011;363;48.764;9.172;2022-11-15T00:31:42;9.10;;;4.87;;
757;SDS011;363;48.764;9.172;2022-11-15T00:34:09;4.90;;;4.37;;
757;SDS011;363;48.764;9.172;2022-11-15T00:36:35;4.70;;;4.20;;
757;SDS011;363;48.764;9.172;2022-11-15T00:39:02;4.73;;;3.83;;
757;SDS011;363;48.764;9.172;2022-11-15T00:41:29;4.50;;;4.10;;
757;SDS011;363;48.764;9.172;2022-11-15T00:43:55;4.43;;;3.97;;
757;SDS011;363;48.764;9.172;2022-11-15T00:46:20;4.00;;;3.60;;
757;SDS011;363;48.764;9.172;2022-11-15T00:48:46;7.17;;;4.00;;
757;SDS011;363;48.764;9.172;2022-11-15T00:51:12;4.63;;;3.37;;
757;SDS011;363;48.764;9.172;2022-11-15T00:53:37;4.10;;;3.80;;
757;SDS011;363;48.764;9.172;2022-11-15T00:56:03;4.40;;;4.00;;
757;SDS011;363;48.764;9.172;2022-11-15T00:58:29;4.23;;;3.83;;
757;SDS011;363;48.764;9.172;2022-11-15T01:00:55;4.75;;;3.58;;
757;SDS011;363;48.764;9.172;2022-11-15T01:03:21;4.60;;;3.90;;
757;SDS011;363;48.764;9.172;2022-11-15T01:05:46;4.00;;;3.60;;
757;SDS011;363;48.764;9.172;2022-11-15T01:08:13;6.30;;;3.80;;
757;SDS011;363;48.764;9.172;2022-11-15T01:10:40;4.78;;;3.80;;
757;SDS011;363;48.764;9.172;2022-11-15T01:13:05;6.83;;;3.83;;
757;SDS011;363;48.764;9.172;2022-11-15T01:15:31;4.93;;;3.63;;
757;SDS011;363;48.764;9.172;2022-11-15T01:17:57;3.90;;;3.50;;
757;SDS011;363;48.764;9.172;2022-11-15T01:20:22;4.80;;;3.70;;
757;SDS011;363;48.764;9.172;2022-11-15T01:22:48;4.73;;;4.07;;
757;SDS011;363;48.764;9.172;2022-11-15T01:25:14;4.53;;;3.70;;
757;SDS011;363;48.764;9.172;2022-11-15T01:27:39;4.30;;;3.63;;
757;SDS011;363;48.764;9.172;2022-11-15T01:30:05;4.70;;;4.30;;
757;SDS011;363;48.764;9.172;2022-11-15T01:32:31;7.28;;;4.40;;
757;SDS011;363;48.764;9.172;2022-11-15T01:34:57;4.33;;;4.00;;
757;SDS011;363;48.764;9.172;2022-11-15T01:37:23;7.87;;;4.30;;
757;SDS011;363;48.764;9.172;2022-11-15T01:39:48;4.70;;;4.20;;
757;SDS011;363;48.764;9.172;2022-11-15T01:42:14;3.80;;;3.50;;
757;SDS011;363;48.764;9.172;2022-11-15T01:44:41;4.03;;;3.73;;
757;SDS011;363;48.764;9.172;2022-11-15T01:47:18;3.85;;;3.45;;
757;SDS011;363;48.764;9.172;2022-11-15T01:49:57;4.32;;;3.92;;
757;SDS011;363;48.764;9.172;2022-11-15T01:52:33;5.05;;;4.15;;
757;SDS011;363;48.764;9.172;2022-11-15T01:57:46;3.75;;;3.45;;
757;SDS011;363;48.764;9.172;2022-11-15T02:00:15;4.95;;;3.35;;
757;SDS011;363;48.764;9.172;2022-11-15T02:02:41;4.13;;;3.80;;
757;SDS011;363;48.764;9.172;2022-11-15T02:05:07;3.90;;;3.60;;
757;SDS011;363;48.764;9.172;2022-11-15T02:07:34;4.45;;;3.92;;
757;SDS011;363;48.764;9.172;2022-11-15T02:10:10;3.85;;;3.55;;
757;SDS011;363;48.764;9.172;2022-11-15T02:12:42;4.50;;;3.75;;
757;SDS011;363;48.764;9.172;2022-11-15T02:15:07;4.70;;;3.70;;
757;SDS011;363;48.764;9.172;2022-11-15T02:29:08;4.30;;;3.90;;
757;SDS011;363;48.764;9.172;2022-11-15T02:34:35;3.85;;;3.10;;
757;SDS011;363;48.764;9.172;2022-11-15T02:37:39;4.50;;;4.10;;
757;SDS011;363;48.764;9.172;2022-11-15T02:40:13;3.50;;;3.20;;
757;SDS011;363;48.764;9.172;2022-11-15T02:42:54;3.50;;;3.20;;
757;SDS011;363;48.764;9.172;2022-11-15T02:45:44;3.40;;;3.10;;
757;SDS011;363;48.764;9.172;2022-11-15T02:48:16;3.80;;;3.30;;
757;SDS011;363;48.764;9.172;2022-11-15T02:50:42;3.30;;;3.00;;
757;SDS011;363;48.764;9.172;2022-11-15T02:53:09;4.40;;;2.90;;
757;SDS011;363;48.764;9.172;2022-11-15T02:55:35;3.27;;;3.07;;
757;SDS011;363;48.764;9.172;2022-11-15T03:01:18;3.78;;;3.10;;
757;SDS011;363;48.764;9.172;2022-11-15T03:04:28;3.63;;;3.13;;
757;SDS011;363;48.764;9.172;2022-11-15T03:06:48;4.65;;;3.38;;
757;SDS011;363;48.764;9.172;2022-11-15T03:12:07;4.25;;;3.25;;
757;SDS011;363;48.764;9.172;2022-11-15T03:15:17;3.08;;;2.88;;
757;SDS011;363;48.764;9.172;2022-11-15T03:18:07;7.32;;;3.42;;
757;SDS011;363;48.764;9.172;2022-11-15T03:20:49;4.57;;;3.25;;
757;SDS011;363;48.764;9.172;2022-11-15T03:23:15;3.92;;;2.90;;
757;SDS011;363;48.764;9.172;2022-11-15T03:25:43;4.55;;;3.40;;
757;SDS011;363;48.764;9.172;2022-11-15T03:28:14;3.70;;;3.30;;
757;SDS011;363;48.764;9.172;2022-11-15T03:30:44;3.80;;;2.80;;
757;SDS011;363;48.764;9.172;2022-11-15T03:33:12;4.38;;;3.28;;
757;SDS011;363;48.764;9.172;2022-11-15T03:35:40;4.18;;;3.30;;
757;SDS011;363;48.764;9.172;2022-11-15T03:40:58;3.72;;;2.85;;
757;SDS011;363;48.764;9.172;2022-11-15T03:43:43;4.90;;;3.42;;
757;SDS011;363;48.764;9.172;2022-11-15T03:46:16;4.28;;;2.95;;
757;SDS011;363;48.764;9.172;2022-11-15T03:48:50;3.45;;;3.15;;
757;SDS011;363;48.764;9.172;2022-11-15T03:51:21;4.15;;;3.13;;
757;SDS011;363;48.764;9.172;2022-11-15T03:53:47;2.70;;;2.50;;
757;SDS011;363;48.764;9.172;2022-11-15T03:56:13;3.03;;;2.77;;
757;SDS011;363;48.764;9.172;2022-11-15T03:58:38;3.43;;;3.13;;
757;SDS011;363;48.764;9.172;2022-11-15T04:01:04;3.33;;;3.03;;
757;SDS011;363;48.764;9.172;2022-11-15T04:03:30;11.33;;;3.57;;
757;SDS011;363;48.764;9.172;2022-11-15T04:05:55;4.20;;;3.57;;
757;SDS011;363;48.764;9.172;2022-11-15T04:08:21;5.20;;;3.50;;
757;SDS011;363;48.764;9.172;2022-11-15T04:10:48;3.70;;;2.97;;
757;SDS011;363;48.764;9.172;2022-11-15T04:13:14;3.65;;;3.35;;
757;SDS011;363;48.764;9.172;2022-11-15T04:15:40;3.90;;;3.53;;
757;SDS011;363;48.764;9.172;2022-11-15T04:18:05;3.40;;;3.03;;
757;SDS011;363;48.764;9.172;2022-11-15T04:20:31;4.27;;;3.20;;
757;SDS011;363;48.764;9.172;2022-11-15T04:23:20;4.70;;;3.40;;
757;SDS011;363;48.764;9.172;2022-11-15T04:26:06;3.65;;;3.35;;
757;SDS011;363;48.764;9.172;2022-11-15T04:28:41;5.47;;;3.40;;
757;SDS011;363;48.764;9.172;2022-11-15T04:31:25;4.30;;;3.22;;
757;SDS011;363;48.764;9.172;2022-11-15T04:33:51;3.80;;;3.17;;
757;SDS011;363;48.764;9.172;2022-11-15T04:36:17;4.25;;;3.13;;
757;SDS011;363;48.764;9.172;2022-11-15T04:39:02;3.38;;;2.75;;
757;SDS011;363;48.764;9.172;2022-11-15T04:41:28;5.25;;;3.38;;
757;SDS011;363;48.764;9.172;2022-11-15T04:43:54;4.37;;;2.90;;
757;SDS011;363;48.764;9.172;2022-11-15T04:46:20;3.67;;;3.30;;
757;SDS011;363;48.764;9.172;2022-11-15T04:48:46;3.20;;;2.90;;
757;SDS011;363;48.764;9.172;2022-11-15T04:51:12;4.57;;;2.77;;
757;SDS011;363;48.764;9.172;2022-11-15T04:53:37;4.00;;;3.60;;
757;SDS011;363;48.764;9.172;2022-11-15T04:56:03;5.80;;;3.70;;
757;SDS011;363;48.764;9.172;2022-11-15T04:58:29;3.37;;;3.00;;
757;SDS011;363;48.764;9.172;2022-11-15T05:00:55;4.53;;;4.13;;
757;SDS011;363;48.764;9.172;2022-11-15T05:03:20;3.60;;;3.27;;
757;SDS011;363;48.764;9.172;2022-11-15T05:06:05;4.28;;;3.15;;
757;SDS011;363;48.764;9.172;2022-11-15T05:08:31;5.95;;;3.40;;
757;SDS011;363;48.764;9.172;2022-11-15T05:10:57;5.30;;;3.07;;
757;SDS011;363;48.764;9.172;2022-11-15T05:13:22;3.90;;;3.33;;
757;SDS011;363;48.764;9.172;2022-11-15T05:15:48;7.17;;;3.23;;
757;SDS011;363;48.764;9.172;2022-11-15T05:18:14;6.43;;;3.17;;
757;SDS011;363;48.764;9.172;2022-11-15T05:20:40;4.57;;;4.00;;
757;SDS011;363;48.764;9.172;2022-11-15T05:23:05;4.80;;;3.80;;
757;SDS011;363;48.764;9.172;2022-11-15T05:25:31;4.13;;;3.83;;
757;SDS011;363;48.764;9.172;2022-11-15T05:27:57;3.30;;;3.00;;
757;SDS011;363;48.764;9.172;2022-11-15T05:30:22;4.17;;;3.77;;
757;SDS011;363;48.764;9.172;2022-11-15T05:32:48;4.33;;;3.27;;
757;SDS011;363;48.764;9.172;2022-11-15T05:35:57;3.28;;;2.97;;
757;SDS011;363;48.764;9.172;2022-11-15T05:38:06;4.88;;;3.53;;
757;SDS011;363;48.764;9.172;2022-11-15T05:40:32;3.50;;;3.20;;
757;SDS011;363;48.764;9.172;2022-11-15T05:42:59;4.38;;;3.20;;
757;SDS011;363;48.764;9.172;2022-11-15T05:45:29;3.63;;;3.30;;
757;SDS011;363;48.764;9.172;2022-11-15T05:47:55;5.57;;;3.20;;
757;SDS011;363;48.764;9.172;2022-11-15T05:50:23;4.95;;;3.38;;
757;SDS011;363;48.764;9.172;2022-11-15T05:52:50;3.42;;;3.13;;
757;SDS011;363;48.764;9.172;2022-11-15T05:55:16;7.88;;;3.42;;
757;SDS011;363;48.764;9.172;2022-11-15T05:57:42;4.07;;;3.53;;
757;SDS011;363;48.764;9.172;2022-11-15T06:00:08;3.17;;;2.97;;
757;SDS011;363;48.764;9.172;2022-11-15T06:02:34;4.18;;;3.20;;
757;SDS011;363;48.764;9.172;2022-11-15T06:05:00;3.90;;;3.50;;
757;SDS011;363;48.764;9.172;2022-11-15T06:07:26;4.10;;;3.70;;
757;SDS011;363;48.764;9.172;2022-11-15T06:09:51;4.33;;;3.90;;
757;SDS011;363;48.764;9.172;2022-11-15T06:12:17;4.03;;;3.70;;
757;SDS011;363;48.764;9.172;2022-11-15T06:14:43;4.40;;;4.00;;
757;SDS011;363;48.764;9.172;2022-11-15T06:17:08;3.93;;;3.43;;
757;SDS011;363;48.764;9.172;2022-11-15T06:19:34;3.97;;;3.37;;
757;SDS011;363;48.764;9.172;2022-11-15T06:22:00;4.40;;;3.03;;
757;SDS011;363;48.764;9.172;2022-11-15T06:24:25;4.43;;;3.27;;
757;SDS011;363;48.764;9.172;2022-11-15T06:26:51;8.87;;;3.67;;
757;SDS011;363;48.764;9.172;2022-11-15T06:29:17;7.28;;;3.90;;
757;SDS011;363;48.764;9.172;2022-11-15T06:31:43;5.43;;;4.33;;
757;SDS011;363;48.764;9.172;2022-11-15T06:34:08;4.77;;;3.80;;
757;SDS011;363;48.764;9.172;2022-11-15T06:36:34;8.27;;;7.43;;
757;SDS011;363;48.764;9.172;2022-11-15T06:39:01;5.15;;;3.67;;
757;SDS011;363;48.764;9.172;2022-11-15T06:41:30;5.63;;;4.30;;
757;SDS011;363;48.764;9.172;2022-11-15T06:43:58;5.90;;;4.95;;
757;SDS011;363;48.764;9.172;2022-11-15T06:46:24;5.80;;;4.57;;
757;SDS011;363;48.764;9.172;2022-11-15T06:48:53;5.10;;;4.00;;
757;SDS011;363;48.764;9.172;2022-11-15T06:51:19;4.25;;;3.85;;
757;SDS011;363;48.764;9.172;2022-11-15T06:53:45;4.90;;;4.40;;
757;SDS011;363;48.764;9.172;2022-11-15T06:56:11;4.40;;;4.00;;
757;SDS011;363;48.764;9.172;2022-11-15T06:58:36;4.00;;;3.60;;
757;SDS011;363;48.764;9.172;2022-11-15T07:01:04;4.23;;;3.83;;
757;SDS011;363;48.764;9.172;2022-11-15T07:03:31;4.88;;;3.70;;
757;SDS011;363;48.764;9.172;2022-11-15T07:05:59;6.50;;;4.35;;
757;SDS011;363;48.764;9.172;2022-11-15T07:08:26;4.60;;;4.20;;
757;SDS011;363;48.764;9.172;2022-11-15T07:10:54;6.68;;;4.95;;
757;SDS011;363;48.764;9.172;2022-11-15T07:13:25;4.50;;;4.10;;
757;SDS011;363;48.764;9.172;2022-11-15T07:15:52;5.05;;;4.35;;
757;SDS011;363;48.764;9.172;2022-11-15T07:18:18;6.07;;;4.50;;
757;SDS011;363;48.764;9.172;2022-11-15T07:20:43;5.53;;;4.87;;
757;SDS011;363;48.764;9.172;2022-11-15T07:23:09;5.37;;;4.30;;
757;SDS011;363;48.764;9.172;2022-11-15T07:25:34;4.80;;;4.27;;
757;SDS011;363;48.764;9.172;2022-11-15T07:28:00;4.40;;;4.00;;
757;SDS011;363;48.764;9.172;2022-11-15T07:30:26;5.28;;;4.43;;
757;SDS011;363;48.764;9.172;2022-11-15T07:32:55;4.40;;;4.00;;
757;SDS011;363;48.764;9.172;2022-11-15T07:35:22;4.82;;;4.13;;
757;SDS011;363;48.764;9.172;2022-11-15T07:40:27;5.55;;;4.57;;
757;SDS011;363;48.764;9.172;2022-11-15T07:43:02;4.38;;;3.97;;
757;SDS011;363;48.764;9.172;2022-11-15T07:45:29;4.72;;;4.32;;
757;SDS011;363;48.764;9.172;2022-11-15T07:47:55;9.40;;;7.17;;
757;SDS011;363;48.764;9.172;2022-11-15T07:50:22;8.80;;;4.63;;
757;SDS011;363;48.764;9.172;2022-11-15T07:52:52;7.03;;;5.70;;
757;SDS011;363;48.764;9.172;2022-11-15T07:55:22;5.75;;;4.57;;
757;SDS011;363;48.764;9.172;2022-11-15T07:57:48;8.05;;;5.20;;
757;SDS011;363;48.764;9.172;2022-11-15T08:00:14;6.27;;;5.13;;
757;SDS011;363;48.764;9.172;2022-11-15T08:02:40;7.57;;;4.88;;
757;SDS011;363;48.764;9.172;2022-11-15T08:05:06;6.22;;;5.60;;
757;SDS011;363;48.764;9.172;2022-11-15T08:07:32;5.80;;;5.03;;
757;SDS011;363;48.764;9.172;2022-11-15T08:09:58;10.80;;;8.17;;
757;SDS011;363;48.764;9.172;2022-11-15T08:12:23;6.27;;;4.60;;
757;SDS011;363;48.764;9.172;2022-11-15T08:14:49;5.83;;;4.07;;
757;SDS011;363;48.764;9.172;2022-11-15T08:17:15;7.53;;;4.50;;
757;SDS011;363;48.764;9.172;2022-11-15T08:19:40;4.73;;;4.30;;
757;SDS011;363;48.764;9.172;2022-11-15T08:22:06;4.17;;;3.73;;
757;SDS011;363;48.764;9.172;2022-11-15T08:24:32;4.53;;;4.13;;
757;SDS011;363;48.764;9.172;2022-11-15T08:26:59;4.30;;;3.97;;
757;SDS011;363;48.764;9.172;2022-11-15T08:29:24;7.63;;;3.97;;
757;SDS011;363;48.764;9.172;2022-11-15T08:31:50;5.10;;;4.20;;
757;SDS011;363;48.764;9.172;2022-11-15T08:34:16;5.20;;;3.87;;
757;SDS011;363;48.764;9.172;2022-11-15T08:36:41;4.50;;;3.80;;
757;SDS011;363;48.764;9.172;2022-11-15T08:39:09;5.37;;;4.37;;
757;SDS011;363;48.764;9.172;2022-11-15T08:41:36;4.43;;;4.03;;
757;SDS011;363;48.764;9.172;2022-11-15T08:44:02;5.05;;;4.20;;
757;SDS011;363;48.764;9.172;2022-11-15T08:46:28;4.20;;;3.80;;
757;SDS011;363;48.764;9.172;2022-11-15T08:48:53;4.53;;;3.70;;
757;SDS011;363;48.764;9.172;2022-11-15T08:51:19;4.03;;;3.73;;
757;SDS011;363;48.764;9.172;2022-11-15T08:53:45;4.83;;;4.00;;
757;SDS011;363;48.764;9.172;2022-11-15T08:56:11;5.57;;;3.80;;
757;SDS011;363;48.764;9.172;2022-11-15T08:58:38;6.85;;;4.80;;
757;SDS011;363;48.764;9.172;2022-11-15T09:01:05;7.53;;;4.57;;
757;SDS011;363;48.764;9.172;2022-11-15T09:03:30;9.00;;;4.67;;
757;SDS011;363;48.764;9.172;2022-11-15T09:05:57;8.30;;;4.77;;
757;SDS011;363;48.764;9.172;2022-11-15T09:08:25;6.35;;;3.80;;
757;SDS011;363;48.764;9.172;2022-11-15T09:10:54;6.78;;;4.50;;
757;SDS011;363;48.764;9.172;2022-11-15T09:13:21;6.95;;;4.75;;
757;SDS011;363;48.764;9.172;2022-11-15T09:15:46;5.47;;;4.97;;
757;SDS011;363;48.764;9.172;2022-11-15T09:18:12;6.70;;;5.20;;
757;SDS011;363;48.764;9.172;2022-11-15T09:20:38;7.57;;;5.10;;
757;SDS011;363;48.764;9.172;2022-11-15T09:23:04;6.37;;;5.43;;
757;SDS011;363;48.764;9.172;2022-11-15T09:25:30;6.78;;;5.60;;
757;SDS011;363;48.764;9.172;2022-11-15T09:27:56;7.20;;;4.85;;
757;SDS011;363;48.764;9.172;2022-11-15T09:30:23;5.53;;;4.82;;
757;SDS011;363;48.764;9.172;2022-11-15T09:32:49;5.68;;;4.50;;
757;SDS011;363;48.764;9.172;2022-11-15T09:35:15;4.97;;;4.47;;
757;SDS011;363;48.764;9.172;2022-11-15T09:37:41;5.53;;;4.90;;
757;SDS011;363;48.764;9.172;2022-11-15T09:40:09;8.20;;;6.07;;
757;SDS011;363;48.764;9.172;2022-11-15T09:42:45;5.28;;;4.78;;
757;SDS011;363;48.764;9.172;2022-11-15T09:45:28;10.27;;;6.20;;
757;SDS011;363;48.764;9.172;2022-11-15T09:48:31;13.80;;;7.00;;
757;SDS011;363;48.764;9.172;2022-11-15T09:51:00;7.25;;;6.53;;
757;SDS011;363;48.764;9.172;2022-11-15T09:53:31;6.45;;;4.40;;
757;SDS011;363;48.764;9.172;2022-11-15T09:56:03;6.15;;;5.47;;
757;SDS011;363;48.764;9.172;2022-11-15T09:58:49;6.10;;;5.13;;
757;SDS011;363;48.764;9.172;2022-11-15T10:04:32;6.80;;;4.40;;
757;SDS011;363;48.764;9.172;2022-11-15T10:07:46;4.40;;;2.50;;
757;SDS011;363;48.764;9.172;2022-11-15T10:09:53;3.70;;;3.40;;
757;SDS011;363;48.764;9.172;2022-11-15T10:12:22;3.20;;;2.90;;
757;SDS011;363;48.764;9.172;2022-11-15T10:14:49;6.93;;;3.75;;
757;SDS011;363;48.764;9.172;2022-11-15T10:17:57;4.85;;;3.10;;
757;SDS011;363;48.764;9.172;2022-11-15T10:20:32;5.53;;;2.58;;
757;SDS011;363;48.764;9.172;2022-11-15T10:23:05;3.55;;;2.50;;
757;SDS011;363;48.764;9.172;2022-11-15T10:25:35;3.10;;;2.83;;
757;SDS011;363;48.764;9.172;2022-11-15T10:28:15;4.88;;;3.20;;
757;SDS011;363;48.764;9.172;2022-11-15T10:30:49;4.70;;;4.20;;
757;SDS011;363;48.764;9.172;2022-11-15T10:46:44;5.65;;;3.70;;
757;SDS011;363;48.764;9.172;2022-11-15T10:49:16;4.20;;;3.13;;
757;SDS011;363;48.764;9.172;2022-11-15T10:51:47;4.05;;;3.30;;
757;SDS011;363;48.764;9.172;2022-11-15T10:54:21;4.13;;;3.20;;
757;SDS011;363;48.764;9.172;2022-11-15T10:57:06;4.78;;;3.05;;
757;SDS011;363;48.764;9.172;2022-11-15T10:59:38;3.33;;;2.95;;
757;SDS011;363;48.764;9.172;2022-11-15T11:05:00;3.67;;;2.60;;
757;SDS011;363;48.764;9.172;2022-11-15T11:07:28;3.63;;;2.90;;
757;SDS011;363;48.764;9.172;2022-11-15T11:10:05;3.35;;;2.60;;
757;SDS011;363;48.764;9.172;2022-11-15T11:12:47;3.15;;;2.45;;
757;SDS011;363;48.764;9.172;2022-11-15T11:15:14;2.40;;;2.20;;
757;SDS011;363;48.764;9.172;2022-11-15T11:20:36;3.55;;;2.47;;
757;SDS011;363;48.764;9.172;2022-11-15T11:26:04;9.00;;;2.83;;
757;SDS011;363;48.764;9.172;2022-11-15T11:29:01;4.22;;;3.08;;
757;SDS011;363;48.764;9.172;2022-11-15T11:34:11;4.60;;;3.50;;
757;SDS011;363;48.764;9.172;2022-11-15T11:50:36;10.48;;;4.22;;
757;SDS011;363;48.764;9.172;2022-11-15T11:53:11;3.38;;;3.08;;
757;SDS011;363;48.764;9.172;2022-11-15T11:55:41;3.42;;;3.00;;
757;SDS011;363;48.764;9.172;2022-11-15T12:03:43;7.47;;;4.47;;
757;SDS011;363;48.764;9.172;2022-11-15T12:09:32;6.00;;;4.10;;
757;SDS011;363;48.764;9.172;2022-11-15T12:12:11;6.05;;;3.22;;
757;SDS011;363;48.764;9.172;2022-11-15T12:17:34;4.38;;;2.80;;
757;SDS011;363;48.764;9.172;2022-11-15T12:22:45;3.17;;;2.92;;
757;SDS011;363;48.764;9.172;2022-11-15T12:28:25;4.40;;;3.33;;
757;SDS011;363;48.764;9.172;2022-11-15T12:33:45;3.70;;;2.97;;
757;SDS011;363;48.764;9.172;2022-11-15T12:39:03;3.40;;;3.10;;
757;SDS011;363;48.764;9.172;2022-11-15T12:41:34;4.75;;;3.60;;
757;SDS011;363;48.764;9.172;2022-11-15T12:44:02;4.18;;;3.25;;
757;SDS011;363;48.764;9.172;2022-11-15T13:02:36;5.85;;;3.40;;
757;SDS011;363;48.764;9.172;2022-11-15T13:17:45;4.85;;;3.50;;
757;SDS011;363;48.764;9.172;2022-11-15T13:25:33;5.10;;;3.20;;
757;SDS011;363;48.764;9.172;2022-11-15T13:28:20;5.22;;;3.42;;
757;SDS011;363;48.764;9.172;2022-11-15T13:30:55;8.27;;;3.65;;
757;SDS011;363;48.764;9.172;2022-11-15T13:33:33;4.57;;;3.08;;
757;SDS011;363;48.764;9.172;2022-11-15T13:36:01;4.03;;;3.17;;
757;SDS011;363;48.764;9.172;2022-11-15T13:38:36;4.50;;;3.20;;
757;SDS011;363;48.764;9.172;2022-11-15T13:43:46;5.60;;;3.25;;
757;SDS011;363;48.764;9.172;2022-11-15T13:48:39;6.57;;;4.70;;
757;SDS011;363;48.764;9.172;2022-11-15T13:51:10;4.00;;;3.30;;
757;SDS011;363;48.764;9.172;2022-11-15T13:53:46;3.38;;;3.08;;
757;SDS011;363;48.764;9.172;2022-11-15T13:56:16;5.20;;;4.70;;
757;SDS011;363;48.764;9.172;2022-11-15T13:58:43;5.82;;;3.58;;
757;SDS011;363;48.764;9.172;2022-11-15T14:01:13;3.97;;;3.57;;
757;SDS011;363;48.764;9.172;2022-11-15T14:03:47;3.15;;;2.92;;
757;SDS011;363;48.764;9.172;2022-11-15T14:06:24;3.45;;;3.13;;
757;SDS011;363;48.764;9.172;2022-11-15T14:09:16;8.20;;;5.80;;
757;SDS011;363;48.764;9.172;2022-11-15T14:11:51;3.83;;;3.03;;
757;SDS011;363;48.764;9.172;2022-11-15T14:14:19;5.20;;;4.10;;
757;SDS011;363;48.764;9.172;2022-11-15T14:16:49;4.65;;;4.20;;
757;SDS011;363;48.764;9.172;2022-11-15T14:27:38;4.95;;;3.88;;
757;SDS011;363;48.764;9.172;2022-11-15T14:30:05;8.90;;;4.50;;
757;SDS011;363;48.764;9.172;2022-11-15T14:32:47;7.82;;;4.78;;
757;SDS011;363;48.764;9.172;2022-11-15T14:35:16;5.05;;;4.28;;
757;SDS011;363;48.764;9.172;2022-11-15T14:37:43;8.50;;;4.53;;
757;SDS011;363;48.764;9.172;2022-11-15T14:40:12;5.78;;;5.05;;
757;SDS011;363;48.764;9.172;2022-11-15T14:42:40;6.15;;;4.53;;
757;SDS011;363;48.764;9.172;2022-11-15T14:45:13;4.87;;;4.40;;
757;SDS011;363;48.764;9.172;2022-11-15T14:47:40;7.03;;;5.05;;
757;SDS011;363;48.764;9.172;2022-11-15T14:50:10;6.03;;;5.40;;
757;SDS011;363;48.764;9.172;2022-11-15T14:52:37;6.65;;;5.38;;
757;SDS011;363;48.764;9.172;2022-11-15T14:55:03;13.80;;;10.03;;
757;SDS011;363;48.764;9.172;2022-11-15T14:57:35;8.35;;;7.40;;
757;SDS011;363;48.764;9.172;2022-11-15T15:00:00;6.93;;;5.90;;
757;SDS011;363;48.764;9.172;2022-11-15T15:02:27;6.25;;;5.22;;
757;SDS011;363;48.764;9.172;2022-11-15T15:04:53;4.57;;;4.10;;
757;SDS011;363;48.764;9.172;2022-11-15T15:07:19;4.63;;;4.20;;
757;SDS011;363;48.764;9.172;2022-11-15T15:09:45;5.90;;;4.90;;
757;SDS011;363;48.764;9.172;2022-11-15T15:12:17;6.85;;;4.80;;
757;SDS011;363;48.764;9.172;2022-11-15T15:14:44;5.70;;;5.15;;
757;SDS011;363;48.764;9.172;2022-11-15T15:17:11;5.63;;;5.00;;
757;SDS011;363;48.764;9.172;2022-11-15T15:19:37;7.18;;;4.75;;
757;SDS011;363;48.764;9.172;2022-11-15T15:22:02;8.10;;;5.30;;
757;SDS011;363;48.764;9.172;2022-11-15T15:24:28;5.23;;;3.80;;
757;SDS011;363;48.764;9.172;2022-11-15T15:26:54;6.60;;;4.30;;
757;SDS011;363;48.764;9.172;2022-11-15T15:29:19;4.60;;;4.20;;
757;SDS011;363;48.764;9.172;2022-11-15T15:31:45;5.77;;;4.60;;
757;SDS011;363;48.764;9.172;2022-11-15T15:34:10;8.20;;;4.83;;
757;SDS011;363;48.764;9.172;2022-11-15T15:36:36;4.63;;;4.23;;
757;SDS011;363;48.764;9.172;2022-11-15T15:39:02;8.33;;;4.30;;
757;SDS011;363;48.764;9.172;2022-11-15T15:41:27;5.07;;;4.57;;
757;SDS011;363;48.764;9.172;2022-11-15T15:43:53;10.60;;;4.63;;
757;SDS011;363;48.764;9.172;2022-11-15T15:46:19;7.10;;;5.20;;
757;SDS011;363;48.764;9.172;2022-11-15T15:48:45;5.53;;;5.03;;
757;SDS011;363;48.764;9.172;2022-11-15T15:51:11;5.78;;;4.90;;
757;SDS011;363;48.764;9.172;2022-11-15T15:53:37;6.90;;;6.00;;
757;SDS011;363;48.764;9.172;2022-11-15T15:56:03;11.47;;;5.27;;
757;SDS011;363;48.764;9.172;2022-11-15T15:58:29;5.90;;;5.13;;
757;SDS011;363;48.764;9.172;2022-11-15T16:00:56;6.65;;;5.00;;
757;SDS011;363;48.764;9.172;2022-11-15T16:03:22;5.87;;;5.03;;
757;SDS011;363;48.764;9.172;2022-11-15T16:05:49;6.75;;;5.35;;
757;SDS011;363;48.764;9.172;2022-11-15T16:08:18;5.50;;;5.03;;
757;SDS011;363;48.764;9.172;2022-11-15T16:10:48;5.72;;;4.55;;
757;SDS011;363;48.764;9.172;2022-11-15T16:13:14;7.40;;;5.00;;
757;SDS011;363;48.764;9.172;2022-11-15T16:15:40;5.40;;;4.80;;
757;SDS011;363;48.764;9.172;2022-11-15T16:18:08;5.35;;;4.85;;
757;SDS011;363;48.764;9.172;2022-11-15T16:20:40;4.93;;;4.50;;
757;SDS011;363;48.764;9.172;2022-11-15T16:23:13;6.18;;;5.13;;
757;SDS011;363;48.764;9.172;2022-11-15T16:25:47;7.10;;;4.88;;
757;SDS011;363;48.764;9.172;2022-11-15T16:28:17;5.18;;;4.30;;
757;SDS011;363;48.764;9.172;2022-11-15T16:30:47;6.63;;;4.80;;
757;SDS011;363;48.764;9.172;2022-11-15T16:33:14;7.97;;;6.40;;
757;SDS011;363;48.764;9.172;2022-11-15T16:35:42;5.80;;;5.10;;
757;SDS011;363;48.764;9.172;2022-11-15T16:38:12;8.63;;;7.20;;
757;SDS011;363;48.764;9.172;2022-11-15T16:40:39;11.98;;;5.90;;
757;SDS011;363;48.764;9.172;2022-11-15T16:43:05;6.67;;;5.40;;
757;SDS011;363;48.764;9.172;2022-11-15T16:45:31;7.23;;;5.50;;
757;SDS011;363;48.764;9.172;2022-11-15T16:47:59;8.50;;;6.35;;
757;SDS011;363;48.764;9.172;2022-11-15T16:50:25;10.50;;;8.53;;
757;SDS011;363;48.764;9.172;2022-11-15T16:52:53;8.70;;;7.32;;
757;SDS011;363;48.764;9.172;2022-11-15T16:55:22;10.05;;;9.05;;
757;SDS011;363;48.764;9.172;2022-11-15T16:57:49;9.85;;;7.20;;
757;SDS011;363;48.764;9.172;2022-11-15T17:00:16;7.15;;;6.55;;
757;SDS011;363;48.764;9.172;2022-11-15T17:02:43;7.15;;;6.45;;
757;SDS011;363;48.764;9.172;2022-11-15T17:05:10;12.18;;;7.43;;
757;SDS011;363;48.764;9.172;2022-11-15T17:07:37;8.80;;;7.40;;
757;SDS011;363;48.764;9.172;2022-11-15T17:10:03;7.68;;;6.60;;
757;SDS011;363;48.764;9.172;2022-11-15T17:12:29;8.40;;;7.50;;
757;SDS011;363;48.764;9.172;2022-11-15T17:14:55;7.30;;;6.60;;
757;SDS011;363;48.764;9.172;2022-11-15T17:17:21;10.73;;;7.28;;
757;SDS011;363;48.764;9.172;2022-11-15T17:19:46;7.47;;;6.53;;
757;SDS011;363;48.764;9.172;2022-11-15T17:22:12;10.90;;;8.50;;
757;SDS011;363;48.764;9.172;2022-11-15T17:24:38;9.23;;;6.70;;
757;SDS011;363;48.764;9.172;2022-11-15T17:27:03;8.10;;;7.40;;
757;SDS011;363;48.764;9.172;2022-11-15T17:29:29;8.17;;;7.20;;
757;SDS011;363;48.764;9.172;2022-11-15T17:31:55;7.77;;;6.97;;
757;SDS011;363;48.764;9.172;2022-11-15T17:34:20;8.03;;;7.23;;
757;SDS011;363;48.764;9.172;2022-11-15T17:36:47;9.90;;;7.47;;
757;SDS011;363;48.764;9.172;2022-11-15T17:39:13;8.35;;;7.40;;
757;SDS011;363;48.764;9.172;2022-11-15T17:41:38;8.67;;;6.50;;
757;SDS011;363;48.764;9.172;2022-11-15T17:44:04;8.00;;;6.17;;
757;SDS011;363;48.764;9.172;2022-11-15T17:46:29;7.33;;;6.63;;
757;SDS011;363;48.764;9.172;2022-11-15T17:48:55;8.27;;;6.80;;
757;SDS011;363;48.764;9.172;2022-11-15T17:51:21;9.63;;;7.90;;
757;SDS011;363;48.764;9.172;2022-11-15T17:53:48;9.10;;;7.10;;
757;SDS011;363;48.764;9.172;2022-11-15T17:56:18;7.13;;;6.45;;
757;SDS011;363;48.764;9.172;2022-11-15T17:58:52;8.30;;;6.10;;
757;SDS011;363;48.764;9.172;2022-11-15T18:03:55;6.88;;;5.72;;
757;SDS011;363;48.764;9.172;2022-11-15T18:06:21;6.60;;;5.90;;
757;SDS011;363;48.764;9.172;2022-11-15T18:08:49;8.77;;;7.15;;
757;SDS011;363;48.764;9.172;2022-11-15T18:11:16;6.68;;;6.03;;
757;SDS011;363;48.764;9.172;2022-11-15T18:13:51;7.18;;;5.90;;
757;SDS011;363;48.764;9.172;2022-11-15T18:16:19;6.70;;;6.00;;
757;SDS011;363;48.764;9.172;2022-11-15T18:18:46;8.02;;;7.22;;